createdAt,value
2022-09-03T12:38:10.083Z,36.00
2022-09-03T12:43:39.568Z,35.80
2022-09-03T12:46:16.185Z,35.80
2022-09-03T12:52:29.096Z,36.00
2022-09-03T12:55:21.298Z,36.00
2022-09-03T12:58:02.643Z,36.00
2022-09-03T13:00:35.128Z,36.20
2022-09-03T13:03:23.247Z,36.20
2022-09-03T13:06:07.155Z,35.90
2022-09-03T13:08:49.091Z,36.20
2022-09-03T13:11:22.024Z,36.20
2022-09-03T13:14:11.489Z,36.30
2022-09-03T13:16:39.868Z,36.30
2022-09-03T13:19:22.806Z,36.70
2022-09-03T13:22:30.974Z,37.00
2022-09-03T13:25:22.187Z,37.40
2022-09-03T13:28:28.058Z,37.50
2022-09-03T13:31:13.121Z,37.50
2022-09-03T13:33:58.380Z,37.80
2022-09-03T13:37:06.465Z,38.20
2022-09-03T13:39:52.847Z,38.20
2022-09-03T13:42:42.532Z,38.00
2022-09-03T13:46:08.124Z,38.00
2022-09-03T13:49:03.828Z,37.50
2022-09-03T13:51:57.668Z,37.00
2022-09-03T13:54:48.281Z,36.90
2022-09-03T13:57:28.462Z,36.90
2022-09-03T14:00:11.388Z,37.20
2022-09-03T14:02:58.212Z,37.70
2022-09-03T14:05:46.150Z,37.90
2022-09-03T14:08:31.249Z,37.90
2022-09-03T14:11:43.367Z,37.40
2022-09-03T14:14:50.621Z,37.00
2022-09-03T14:17:45.303Z,37.10
2022-09-03T14:20:28.949Z,36.60
2022-09-03T14:23:27.288Z,35.90
2022-09-03T14:26:01.531Z,35.40
2022-09-03T14:28:37.646Z,35.20
2022-09-03T14:31:27.415Z,35.40
2022-09-03T14:34:06.657Z,35.80
2022-09-03T14:36:56.567Z,36.10
2022-09-03T14:39:57.112Z,36.40
2022-09-03T14:43:08.227Z,36.00
2022-09-03T14:46:18.765Z,35.40
2022-09-03T14:49:17.520Z,35.30
2022-09-03T14:52:03.808Z,35.60
2022-09-03T14:55:09.687Z,35.80
2022-09-03T14:58:20.638Z,35.70
2022-09-03T15:00:58.816Z,35.30
2022-09-03T15:03:51.010Z,34.60
2022-09-03T15:06:37.066Z,34.30
2022-09-03T15:09:40.347Z,34.30
2022-09-03T15:12:36.406Z,34.20
2022-09-03T15:15:45.918Z,33.60
2022-09-03T15:18:42.191Z,33.30
2022-09-03T15:21:53.546Z,33.50
2022-09-03T15:24:56.498Z,33.60
2022-09-03T15:28:01.776Z,33.50
2022-09-03T15:31:23.956Z,32.90
2022-09-03T15:34:02.975Z,32.10
2022-09-03T15:36:50.971Z,31.40
2022-09-03T15:39:42.160Z,30.50
2022-09-03T15:42:19.393Z,29.80
2022-09-03T15:44:52.861Z,29.40
2022-09-03T15:47:52.016Z,29.00
2022-09-03T15:50:34.376Z,28.60
2022-09-03T15:53:29.823Z,28.30
2022-09-03T15:56:21.741Z,28.00
2022-09-03T15:59:04.465Z,27.80
2022-09-03T16:02:19.227Z,27.50
2022-09-03T16:05:09.846Z,27.10
2022-09-03T16:10:31.002Z,26.60
2022-09-03T16:13:33.419Z,26.40
2022-09-03T16:19:00.148Z,25.80
2022-09-03T16:21:49.305Z,25.50
2022-09-03T16:24:22.004Z,25.30
2022-09-03T16:27:08.778Z,25.10
2022-09-03T16:29:38.762Z,25.10
2022-09-03T16:32:49.802Z,25.10
2022-09-03T16:35:20.265Z,25.00
2022-09-03T16:38:14.508Z,25.00
2022-09-03T16:40:48.077Z,24.90
2022-09-03T16:43:47.908Z,24.90
2022-09-03T16:46:41.302Z,24.70
2022-09-03T16:49:47.201Z,24.60
2022-09-03T16:52:56.282Z,24.50
2022-09-03T16:55:35.618Z,24.40
2022-09-03T16:58:47.891Z,24.40
2022-09-03T17:01:18.527Z,24.50
2022-09-03T17:04:23.449Z,24.50
2022-09-03T17:07:12.139Z,24.40
2022-09-03T17:10:18.445Z,24.20
2022-09-03T17:13:00.307Z,24.10
2022-09-03T17:16:02.887Z,23.90
2022-09-03T17:18:44.713Z,23.80
2022-09-03T17:21:46.544Z,23.70
2022-09-03T17:24:36.582Z,23.60
2022-09-03T17:27:48.044Z,23.60
2022-09-03T17:30:59.780Z,23.40
2022-09-03T17:34:07.135Z,23.30
2022-09-03T17:36:38.937Z,23.10
2022-09-03T17:39:57.169Z,22.90
2022-09-03T17:43:06.791Z,22.60
2022-09-03T17:45:40.953Z,22.40
2022-09-03T17:48:30.737Z,22.20
2022-09-03T20:50:52.101Z,16.40
2022-09-03T20:53:44.696Z,16.20
2022-09-03T20:56:43.745Z,16.10
2022-09-03T20:59:21.721Z,16.00
2022-09-03T21:02:28.082Z,15.90
2022-09-03T21:05:11.211Z,15.80
2022-09-03T21:08:00.313Z,15.70
2022-09-03T21:10:58.495Z,15.60
2022-09-03T21:13:41.985Z,15.50
2022-09-03T21:16:49.340Z,15.40
2022-09-03T21:19:47.872Z,15.30
2022-09-03T21:22:55.059Z,15.20
2022-09-03T21:25:47.302Z,15.10
2022-09-03T21:28:32.740Z,15.00
2022-09-03T21:31:17.093Z,14.90
2022-09-03T21:33:52.087Z,14.80
2022-09-03T21:36:36.182Z,14.80
2022-09-03T21:39:21.195Z,14.70
2022-09-03T21:42:04.369Z,14.60
2022-09-03T21:44:41.392Z,14.50
2022-09-03T21:47:23.692Z,14.40
2022-09-03T21:50:21.830Z,14.40
2022-09-03T21:53:16.820Z,14.40
2022-09-03T21:56:28.537Z,14.40
2022-09-03T21:59:17.200Z,14.30
2022-09-03T22:01:56.724Z,14.20
2022-09-03T22:04:27.347Z,14.10
2022-09-03T22:07:30.839Z,14.10
2022-09-03T22:10:04.993Z,14.00
2022-09-03T22:12:50.597Z,13.90
2022-09-03T22:15:20.826Z,13.90
2022-09-03T22:18:28.742Z,13.80
2022-09-03T22:21:28.779Z,13.80
2022-09-03T22:24:52.226Z,13.70
2022-09-03T22:27:37.300Z,13.70
2022-09-03T22:30:20.378Z,13.70
2022-09-03T22:33:05.661Z,13.70
2022-09-03T22:35:59.502Z,13.80
2022-09-03T22:38:46.601Z,13.80
2022-09-03T22:41:35.731Z,13.70
2022-09-03T22:44:32.940Z,13.70
2022-09-03T22:47:37.348Z,13.60
2022-09-03T22:50:48.441Z,13.50
2022-09-03T22:53:32.032Z,13.30
2022-09-03T22:56:11.888Z,13.20
2022-09-03T22:58:53.743Z,13.10
2022-09-03T23:01:31.089Z,13.10
2022-09-03T23:04:30.633Z,13.10
2022-09-03T23:07:14.577Z,13.00
2022-09-03T23:09:56.717Z,13.00
2022-09-03T23:12:37.976Z,13.00
2022-09-03T23:15:11.728Z,12.90
2022-09-03T23:18:01.223Z,12.80
2022-09-03T23:20:30.967Z,12.80
2022-09-03T23:23:24.316Z,12.80
2022-09-03T23:26:18.086Z,12.80
2022-09-03T23:28:51.085Z,12.80
2022-09-03T23:31:27.451Z,12.80
2022-09-03T23:33:56.082Z,12.80
2022-09-03T23:36:58.008Z,12.90
2022-09-03T23:39:58.234Z,12.90
2022-09-03T23:42:58.557Z,12.90
2022-09-03T23:45:40.165Z,13.00
2022-09-03T23:48:25.298Z,13.00
2022-09-03T23:51:29.929Z,13.00
2022-09-03T23:54:47.176Z,13.00
2022-09-03T23:58:00.483Z,12.90
